Aeroporto :
LOGIN :

Iscrizione | Disclaimer

   EN    FR    IT 

 










Sommario :    VFR   VFR Marginale   IFR   IFR Intensivo   IFR Molto Intensivo
Visibilità : 
Base nubi : 
>= 8 km
>= 3000ft
5 / 8 km
1000 / 3000 ft
1500m / 5 km
500 / 1000 ft
800 / 1500m
200 / 500 ft
< 800m
< 200 ft
Simboli :   Temporali  Nebbia  Neve Forte  Precipitazioni Forti  Vento > 20 kt
SIGMETs :   Varie  Temporali  Ghiacco  Turbolenza  Onda orograficha  Ceneri Vulcaniche






- Altitudine del aeroporto : 140 ft


ESTL - Ljungbyhed

ULTIMO METAR :
  • 242320Z AUTO 27013KT 9999 NCD 05/05 Q1013

METARs OBSOLETI :
  • 242250Z AUTO 27012KT 9999 FEW012/// 06/05 Q1014
  • 242220Z AUTO 27014KT 9999 FEW012/// SCT015/// BKN019/// 07/06 Q1014
  • 242150Z AUTO 26015KT 9999 FEW012/// SCT021/// OVC030/// 07/06 Q1013
  • 242120Z AUTO 26013KT 9999 BKN028/// 07/06 Q1013
  • 242050Z AUTO 26011KT 9999 OVC027/// 07/07 Q1014

Previsioni scadute.



MetMap, La meteo Aeronautica in un colpo d'occhio ! - Copyright ORBIFLY Dicembre 2007 - Disclaimer

ORBIFLY MET'MAP TEAM :

Programmazione e sviluppo : Alexandra Zaïnal
Concezione : Baudouin d'Aumeries
Aiuto per la programmazione : Marc-Olivier Méhu
Supporto tecnico e logistico : Manuel Goepfert
Aiuto per la traduzione : Arnaldo La Scala

Contatto : metmap@orbifly.com




FONTI E CREDITI :

   NOAA